createdAt,value
2023-03-04T00:02:53.657Z,101352.38
2023-03-04T00:06:55.203Z,101359.94
2023-03-04T00:10:56.809Z,101363.72
2023-03-04T00:14:58.539Z,101363.59
2023-03-04T00:19:00.141Z,101358.91
2023-03-04T00:23:01.646Z,101368.63
2023-03-04T00:27:03.200Z,101366.22
2023-03-04T00:31:05.376Z,101372.03
2023-03-04T00:35:07.513Z,101376.56
2023-03-04T00:39:09.079Z,101375.03
2023-03-04T00:43:10.611Z,101382.31
2023-03-04T00:47:12.311Z,101386.09
2023-03-04T00:51:13.854Z,101380.88
2023-03-04T00:55:15.894Z,101385.53
2023-03-04T00:59:17.538Z,101384.66
2023-03-04T01:03:19.076Z,101390.59
2023-03-04T01:07:20.629Z,101382.03
2023-03-04T01:11:22.392Z,101382.91
2023-03-04T01:15:24.096Z,101387.94
2023-03-04T01:19:25.647Z,101372.75
2023-03-04T01:23:27.202Z,101375.03
2023-03-04T01:27:28.795Z,101376.66
2023-03-04T01:31:30.349Z,101374.00
2023-03-04T01:35:31.963Z,101361.75
2023-03-04T01:39:33.927Z,101357.31
2023-03-04T01:43:37.803Z,101366.16
2023-03-04T01:47:39.563Z,101359.63
2023-03-04T01:51:44.129Z,101357.88
2023-03-04T01:55:45.753Z,101350.41
2023-03-04T02:00:07.789Z,101357.09
2023-03-04T02:04:21.148Z,101345.72
2023-03-04T02:08:24.607Z,101347.00
2023-03-04T02:12:26.247Z,101348.66
2023-03-04T02:16:28.032Z,101344.59
2023-03-04T02:20:45.612Z,101337.13
2023-03-04T02:24:54.385Z,101331.41
2023-03-04T02:28:58.438Z,101328.13
2023-03-04T02:33:00.023Z,101335.16
2023-03-04T02:37:02.902Z,101333.66
2023-03-04T02:41:09.464Z,101330.63
2023-03-04T02:45:44.294Z,101329.59
2023-03-04T02:49:46.744Z,101319.88
2023-03-04T02:53:48.387Z,101325.03
2023-03-04T02:57:50.100Z,101323.00
2023-03-04T03:01:52.226Z,101322.03
2023-03-04T03:05:54.722Z,101319.00
2023-03-04T03:09:57.147Z,101318.88
2023-03-04T03:13:58.726Z,101325.22
2023-03-04T03:18:01.005Z,101312.19
2023-03-04T03:22:02.779Z,101314.47
2023-03-04T03:26:05.754Z,101311.69
2023-03-04T03:30:09.098Z,101320.59
2023-03-04T03:34:11.627Z,101317.19
2023-03-04T03:38:13.277Z,101313.94
2023-03-04T03:42:14.850Z,101315.34
2023-03-04T03:46:16.448Z,101320.78
2023-03-04T03:50:18.039Z,101322.91
2023-03-04T03:54:19.601Z,101329.06
2023-03-04T03:58:21.755Z,101327.16
2023-03-04T04:02:23.765Z,101330.75
2023-03-04T04:06:25.814Z,101323.34
2023-03-04T04:10:27.386Z,101328.50
2023-03-04T04:14:28.928Z,101325.00
2023-03-04T04:18:30.523Z,101327.25
2023-03-04T04:22:32.146Z,101326.22
2023-03-04T04:26:33.675Z,101331.72
2023-03-04T04:30:35.551Z,101327.59
2023-03-04T04:34:37.226Z,101336.41
2023-03-04T04:38:38.800Z,101335.09
2023-03-04T04:42:40.430Z,101334.03
2023-03-04T04:46:42.724Z,101335.81
2023-03-04T04:50:44.255Z,101329.00
2023-03-04T04:54:45.839Z,101335.53
2023-03-04T04:58:47.941Z,101335.53
2023-03-04T05:02:49.501Z,101340.06
2023-03-04T05:06:51.031Z,101339.91
2023-03-04T05:10:53.738Z,101339.03
2023-03-04T05:14:55.244Z,101339.78
2023-03-04T05:18:56.802Z,101356.56
2023-03-04T05:22:58.562Z,101355.69
2023-03-04T05:27:01.556Z,101351.25
2023-03-04T05:31:04.298Z,101343.69
2023-03-04T05:35:06.459Z,101340.84
2023-03-04T05:39:07.956Z,101340.72
2023-03-04T05:43:10.239Z,101342.91
2023-03-04T05:47:11.968Z,101344.22
2023-03-04T05:51:13.686Z,101344.63
2023-03-04T05:55:16.167Z,101337.31
2023-03-04T05:59:20.534Z,101340.63
2023-03-04T06:03:22.603Z,101340.09
2023-03-04T06:07:24.447Z,101343.19
2023-03-04T06:11:26.040Z,101345.84
2023-03-04T06:15:28.015Z,101344.06
2023-03-04T06:19:29.548Z,101349.91
2023-03-04T06:23:31.434Z,101353.34
2023-03-04T06:27:33.397Z,101351.72
2023-03-04T06:31:35.089Z,101360.69
2023-03-04T06:35:36.700Z,101361.84
2023-03-04T06:39:38.340Z,101357.66
2023-03-04T06:43:40.201Z,101361.94
2023-03-04T06:47:41.844Z,101369.28
2023-03-04T06:51:43.385Z,101377.16
2023-03-04T06:55:44.945Z,101378.78
2023-03-04T06:59:46.611Z,101368.53
2023-03-04T07:03:49.315Z,101381.03
2023-03-04T07:07:50.877Z,101375.72
2023-03-04T07:11:52.405Z,101378.25
2023-03-04T07:15:53.948Z,101387.59
2023-03-04T07:19:55.568Z,101380.38
2023-03-04T07:23:57.179Z,101391.09
2023-03-04T07:27:58.735Z,101388.44
2023-03-04T07:32:00.399Z,101386.66
2023-03-04T07:36:02.056Z,101390.41
2023-03-04T07:40:03.996Z,101400.91
2023-03-04T07:44:07.918Z,101403.03
2023-03-04T07:48:09.588Z,101408.34
2023-03-04T07:52:11.127Z,101405.78
2023-03-04T07:56:14.815Z,101410.47
2023-03-04T08:00:17.618Z,101409.56
2023-03-04T08:04:19.203Z,101409.53
2023-03-04T08:08:20.821Z,101413.31
2023-03-04T08:12:24.492Z,101408.69
2023-03-04T08:16:26.737Z,101422.47
2023-03-04T08:20:28.222Z,101414.25
2023-03-04T08:24:29.792Z,101409.41
2023-03-04T08:28:31.363Z,101416.25
2023-03-04T08:32:33.103Z,101410.88
2023-03-04T08:36:34.791Z,101414.16
2023-03-04T08:40:36.345Z,101407.00
2023-03-04T08:44:37.881Z,101404.72
2023-03-04T08:48:39.665Z,101409.34
2023-03-04T08:52:41.250Z,101415.13
2023-03-04T08:56:42.818Z,101398.84
2023-03-04T09:00:48.412Z,101404.41
2023-03-04T09:04:50.022Z,101409.94
2023-03-04T09:08:51.628Z,101401.91
2023-03-04T09:12:53.567Z,101406.41
2023-03-04T09:16:55.161Z,101409.16
2023-03-04T09:20:56.760Z,101402.16
2023-03-04T09:24:58.397Z,101402.72
2023-03-04T09:29:01.750Z,101394.81
2023-03-04T09:33:03.475Z,101397.78
2023-03-04T09:37:05.030Z,101397.22
2023-03-04T09:41:16.194Z,101401.13
2023-03-04T09:45:22.035Z,101402.22
2023-03-04T09:49:24.480Z,101408.78
2023-03-04T09:53:53.669Z,101399.06
2023-03-04T09:58:16.639Z,101420.72
2023-03-04T10:02:32.180Z,101415.19
2023-03-04T10:06:34.116Z,101418.69
2023-03-04T10:10:39.522Z,101417.72
2023-03-04T10:14:51.259Z,101420.56
2023-03-04T10:18:58.528Z,101417.81
2023-03-04T10:23:08.937Z,101413.50
2023-03-04T10:27:15.477Z,101417.13
2023-03-04T10:31:38.130Z,101411.19
2023-03-04T10:35:41.003Z,101413.06
2023-03-04T10:39:44.776Z,101407.66
2023-03-04T10:44:12.170Z,101409.81
2023-03-04T10:48:23.795Z,101405.22
2023-03-04T10:52:31.903Z,101399.22
2023-03-04T10:56:46.263Z,101395.22
2023-03-04T11:01:06.724Z,101393.75
2023-03-04T11:05:19.359Z,101395.38
2023-03-04T11:09:29.684Z,101382.53
2023-03-04T11:13:31.692Z,101372.25
2023-03-04T11:17:47.057Z,101361.13
2023-03-04T11:21:49.540Z,101351.03
2023-03-04T11:26:07.997Z,101357.84
2023-03-04T11:30:47.421Z,101350.63
2023-03-04T11:34:57.077Z,101344.50
2023-03-04T11:38:59.958Z,101345.16
2023-03-04T11:43:07.436Z,101342.44
2023-03-04T11:47:38.271Z,101345.88
2023-03-04T11:51:59.861Z,101346.06
2023-03-04T11:56:36.640Z,101331.09
2023-03-04T12:00:55.831Z,101325.53
2023-03-04T12:05:15.503Z,101324.97
2023-03-04T12:09:45.001Z,101323.59
2023-03-04T12:14:09.297Z,101322.50
2023-03-04T12:18:35.884Z,101315.47
2023-03-04T12:22:51.528Z,101309.59
2023-03-04T12:27:12.184Z,101299.91
2023-03-04T12:31:18.938Z,101300.84
2023-03-04T12:35:30.146Z,101299.41
2023-03-04T12:39:42.564Z,101290.38
2023-03-04T12:44:05.419Z,101284.63
2023-03-04T12:48:11.873Z,101283.13
2023-03-04T12:52:38.449Z,101275.50
2023-03-04T12:56:51.921Z,101278.66
2023-03-04T13:01:25.627Z,101273.94
2023-03-04T13:05:58.134Z,101270.94
2023-03-04T13:10:12.802Z,101275.03
2023-03-04T13:14:15.051Z,101268.47
2023-03-04T13:18:32.409Z,101264.94
2023-03-04T13:22:39.902Z,101260.34
2023-03-04T13:26:41.563Z,101260.81
2023-03-04T13:31:18.217Z,101252.00
2023-03-04T13:35:50.991Z,101253.59
2023-03-04T13:40:23.242Z,101247.41
2023-03-04T13:44:43.055Z,101244.84
2023-03-04T13:48:50.857Z,101241.34
2023-03-04T13:52:53.001Z,101239.78
2023-03-04T13:57:00.458Z,101239.00
2023-03-04T14:01:02.035Z,101238.41
2023-03-04T14:05:03.839Z,101235.78
2023-03-04T14:09:13.798Z,101229.63
2023-03-04T14:13:15.419Z,101230.25
2023-03-04T14:17:23.956Z,101226.09
2023-03-04T14:21:25.996Z,101228.03
2023-03-04T14:25:27.519Z,101223.94
2023-03-04T14:29:31.125Z,101222.19
2023-03-04T14:33:32.750Z,101210.81
2023-03-04T14:37:44.453Z,101211.44
2023-03-04T14:41:48.301Z,101204.97
2023-03-04T14:45:53.176Z,101193.75
2023-03-04T14:49:55.145Z,101196.31
2023-03-04T14:53:57.720Z,101182.13
2023-03-04T14:58:22.569Z,101185.53
2023-03-04T15:02:31.479Z,101185.16
2023-03-04T15:06:39.553Z,101182.41
2023-03-04T15:10:41.161Z,101179.06
2023-03-04T15:14:45.504Z,101173.91
2023-03-04T15:19:23.229Z,101170.69
2023-03-04T15:23:25.992Z,101169.56
2023-03-04T15:27:29.439Z,101170.28
2023-03-04T15:31:31.061Z,101174.88
2023-03-04T15:35:33.445Z,101166.38
2023-03-04T15:39:35.152Z,101169.91
2023-03-04T15:43:36.842Z,101176.19
2023-03-04T15:47:38.397Z,101161.81
2023-03-04T15:51:40.343Z,101158.66
2023-03-04T15:55:45.185Z,101154.69
2023-03-04T15:59:46.989Z,101151.63
2023-03-04T16:03:49.260Z,101154.63
2023-03-04T16:07:51.980Z,101156.19
2023-03-04T16:11:56.378Z,101154.03
2023-03-04T16:15:58.058Z,101154.50
2023-03-04T16:19:59.639Z,101155.22
2023-03-04T16:24:01.501Z,101152.09
2023-03-04T16:28:04.050Z,101149.84
2023-03-04T16:32:06.018Z,101149.16
2023-03-04T16:36:22.106Z,101159.53
2023-03-04T16:40:26.967Z,101156.00
2023-03-04T16:44:28.529Z,101157.38
2023-03-04T16:48:30.139Z,101156.50
2023-03-04T16:52:33.484Z,101152.97
2023-03-04T16:56:35.120Z,101154.50
2023-03-04T17:00:36.652Z,101155.22
2023-03-04T17:04:38.254Z,101143.28
2023-03-04T17:08:40.238Z,101163.53
2023-03-04T17:12:42.360Z,101148.84
2023-03-04T17:16:43.985Z,101153.06
2023-03-04T17:20:45.705Z,101152.19
2023-03-04T17:24:47.375Z,101152.66
2023-03-04T17:28:50.381Z,101144.16
2023-03-04T17:32:52.063Z,101144.94
2023-03-04T17:36:53.686Z,101155.88
2023-03-04T17:40:56.406Z,101151.56
2023-03-04T17:44:58.028Z,101150.69
2023-03-04T17:48:59.699Z,101149.63
2023-03-04T17:53:01.283Z,101149.75
2023-03-04T17:57:02.866Z,101151.50
2023-03-04T18:01:11.511Z,101147.97
2023-03-04T18:05:13.083Z,101148.75
2023-03-04T18:09:14.835Z,101142.09
2023-03-04T18:13:16.551Z,101139.56
2023-03-04T18:17:18.197Z,101138.84
2023-03-04T18:21:20.600Z,101136.31
2023-03-04T18:25:22.197Z,101127.63
2023-03-04T18:29:23.844Z,101120.69
2023-03-04T18:33:25.568Z,101116.47
2023-03-04T18:37:27.158Z,101108.75
2023-03-04T18:41:28.865Z,101106.97
2023-03-04T18:45:30.480Z,101116.19
2023-03-04T18:49:32.249Z,101116.94
2023-03-04T18:53:33.806Z,101126.16
2023-03-04T18:57:38.267Z,101111.69
2023-03-04T19:01:40.419Z,101116.75
2023-03-04T19:05:42.858Z,101116.06
2023-03-04T19:09:44.646Z,101113.47
2023-03-04T19:13:47.537Z,101112.66
2023-03-04T19:17:49.223Z,101121.16
2023-03-04T19:21:50.710Z,101115.41
2023-03-04T19:25:52.292Z,101119.69
2023-03-04T19:29:53.943Z,101107.88
2023-03-04T19:33:55.538Z,101118.06
2023-03-04T19:37:57.030Z,101118.94
2023-03-04T19:41:58.593Z,101118.06
2023-03-04T19:46:00.110Z,101112.97
2023-03-04T19:50:01.914Z,101112.06
2023-03-04T19:54:03.641Z,101116.28
2023-03-04T19:58:05.203Z,101108.56
2023-03-04T20:02:07.019Z,101106.97
2023-03-04T20:06:09.089Z,101107.88
2023-03-04T20:10:11.627Z,101104.25
2023-03-04T20:14:13.454Z,101101.31
2023-03-04T20:18:14.994Z,101096.22
2023-03-04T20:22:16.580Z,101097.03
2023-03-04T20:26:18.510Z,101097.03
2023-03-04T20:30:26.590Z,101100.25
2023-03-04T20:34:28.273Z,101103.09
2023-03-04T20:38:29.838Z,101098.09
2023-03-04T20:42:31.988Z,101096.53
2023-03-04T20:46:39.637Z,101100.84
2023-03-04T20:50:41.395Z,101100.84
2023-03-04T20:54:43.075Z,101097.41
2023-03-04T20:58:46.294Z,101089.78
2023-03-04T21:02:47.886Z,101096.53
2023-03-04T21:06:51.541Z,101094.06
2023-03-04T21:10:53.136Z,101094.19
2023-03-04T21:14:54.753Z,101095.19
2023-03-04T21:18:56.945Z,101087.63
2023-03-04T21:22:58.654Z,101089.50
2023-03-04T21:27:01.488Z,101078.47
2023-03-04T21:31:04.405Z,101093.03
2023-03-04T21:35:06.322Z,101081.88
2023-03-04T21:39:08.157Z,101079.34
2023-03-04T21:43:09.801Z,101079.44
2023-03-04T21:47:11.410Z,101079.53
2023-03-04T21:51:14.892Z,101078.66
2023-03-04T21:55:16.560Z,101078.66
2023-03-04T21:59:18.370Z,101073.56
2023-03-04T22:03:21.575Z,101085.41
2023-03-04T22:07:23.182Z,101077.84
2023-03-04T22:11:25.039Z,101080.31
2023-03-04T22:15:26.592Z,101067.59
2023-03-04T22:19:31.739Z,101069.16
2023-03-04T22:23:33.587Z,101061.66
2023-03-04T22:27:35.111Z,101053.91
2023-03-04T22:31:38.307Z,101051.28
2023-03-04T22:35:40.369Z,101053.03
2023-03-04T22:39:42.018Z,101047.97
2023-03-04T22:43:44.262Z,101046.22
2023-03-04T22:47:51.463Z,101050.38
2023-03-04T22:51:53.116Z,101042.75
2023-03-04T22:55:58.502Z,101036.91
2023-03-04T23:00:00.142Z,101043.75
2023-03-04T23:04:02.209Z,101035.38
2023-03-04T23:08:04.038Z,101035.38
2023-03-04T23:12:06.265Z,101036.25
2023-03-04T23:16:11.101Z,101044.63
2023-03-04T23:20:16.129Z,101036.25
2023-03-04T23:24:19.493Z,101035.25
2023-03-04T23:28:21.129Z,101029.28
2023-03-04T23:32:22.830Z,101031.91
2023-03-04T23:36:29.552Z,101037.00
2023-03-04T23:40:31.151Z,101028.50
2023-03-04T23:44:32.710Z,101031.16
2023-03-04T23:48:34.373Z,101022.72
2023-03-04T23:52:35.908Z,101022.03
2023-03-04T23:56:37.835Z,101023.72
